createdAt,value
2023-04-27T11:12:27.111Z,1010.11
2023-04-27T11:13:27.056Z,1010.11
2023-04-27T11:14:26.997Z,1010.08
2023-04-27T11:15:26.989Z,1010.07
2023-04-27T11:16:27.000Z,1010.08
2023-04-27T11:17:26.985Z,1010.05
2023-04-27T11:18:26.955Z,1010.08
2023-04-27T11:19:26.958Z,1010.11
2023-04-27T11:20:26.944Z,1010.16
2023-04-27T11:21:26.930Z,1010.11
2023-04-27T11:22:26.915Z,1010.12
2023-04-27T11:23:26.917Z,1010.08
2023-04-27T11:24:26.884Z,1010.08
2023-04-27T11:25:26.889Z,1010.08
2023-04-27T11:26:26.860Z,1010.08
2023-04-27T11:27:26.841Z,1010.07
2023-04-27T11:28:26.849Z,1010.04
2023-04-27T11:29:26.842Z,1010.06
2023-04-27T11:30:26.836Z,1009.99
2023-04-27T11:31:26.853Z,1010.00
2023-04-27T11:32:26.884Z,1010.03
2023-04-27T11:33:26.792Z,1010.03
2023-04-27T11:34:26.788Z,1010.02
2023-04-27T11:35:26.766Z,1009.98
2023-04-27T11:36:26.753Z,1009.99
2023-04-27T11:37:26.735Z,1009.99
2023-04-27T11:38:26.813Z,1009.96
2023-04-27T11:39:26.794Z,1009.95
2023-04-27T11:40:26.723Z,1009.90
2023-04-27T11:41:26.677Z,1009.86
2023-04-27T11:42:26.692Z,1009.84
2023-04-27T11:43:26.669Z,1009.80
2023-04-27T11:44:26.691Z,1009.81
2023-04-27T11:45:26.634Z,1009.79
2023-04-27T11:46:26.693Z,1009.78
2023-04-27T11:47:26.676Z,1009.83
2023-04-27T11:48:26.610Z,1009.83
2023-04-27T11:49:26.584Z,1009.81
2023-04-27T11:50:26.608Z,1009.80
2023-04-27T11:51:26.563Z,1009.84
2023-04-27T11:52:26.578Z,1009.79
2023-04-27T11:53:26.570Z,1009.82
2023-04-27T11:54:26.534Z,1009.74
2023-04-27T11:55:26.528Z,1009.77
2023-04-27T11:56:26.534Z,1009.75
2023-04-27T11:57:26.496Z,1009.72
2023-04-27T11:58:26.489Z,1009.76
2023-04-27T11:59:26.493Z,1009.74
2023-04-27T12:00:26.485Z,1009.73
2023-04-27T12:01:36.953Z,1009.69
2023-04-27T12:02:26.549Z,1009.71
2023-04-27T12:03:26.888Z,1009.68
2023-04-27T12:04:26.582Z,1009.66
2023-04-27T12:05:26.530Z,1009.62
2023-04-27T12:06:32.617Z,1009.59
2023-04-27T12:07:26.401Z,1009.61
2023-04-27T12:08:26.376Z,1009.58
2023-04-27T12:09:26.375Z,1009.59
2023-04-27T12:10:26.366Z,1009.55
2023-04-27T12:11:26.352Z,1009.54
2023-04-27T12:12:26.348Z,1009.54
2023-04-27T12:13:26.326Z,1009.57
2023-04-27T12:14:26.333Z,1009.55
2023-04-27T12:15:26.322Z,1009.56
2023-04-27T12:16:26.320Z,1009.59
2023-04-27T12:17:26.339Z,1009.56
2023-04-27T12:18:26.297Z,1009.58
2023-04-27T12:19:26.269Z,1009.59
2023-04-27T12:20:26.252Z,1009.57
2023-04-27T12:21:26.250Z,1009.54
2023-04-27T12:22:26.226Z,1009.55
2023-04-27T12:23:26.214Z,1009.54
2023-04-27T12:24:26.198Z,1009.58
2023-04-27T12:25:26.191Z,1009.47
2023-04-27T12:26:26.179Z,1009.54
2023-04-27T12:27:26.172Z,1009.57
2023-04-27T12:28:26.171Z,1009.57
2023-04-27T12:29:26.140Z,1009.56
2023-04-27T12:30:26.146Z,1009.56
2023-04-27T12:31:27.816Z,1009.51
2023-04-27T12:32:26.169Z,1009.50
2023-04-27T12:33:26.109Z,1009.50
2023-04-27T12:34:26.085Z,1009.47
2023-04-27T12:35:26.096Z,1009.48
2023-04-27T12:36:26.085Z,1009.50
2023-04-27T12:37:27.090Z,1009.49
2023-04-27T12:38:26.036Z,1009.50
2023-04-27T12:39:26.047Z,1009.49
2023-04-27T12:40:26.025Z,1009.46
2023-04-27T12:41:26.012Z,1009.49
2023-04-27T12:42:26.019Z,1009.48
2023-04-27T12:43:25.975Z,1009.41
2023-04-27T12:44:25.991Z,1009.44
2023-04-27T12:45:26.012Z,1009.44
2023-04-27T12:46:26.061Z,1009.42
2023-04-27T12:48:25.953Z,1009.38
2023-04-27T12:49:25.913Z,1009.37
2023-04-27T12:50:25.941Z,1009.40
2023-04-27T12:51:25.919Z,1009.39
2023-04-27T12:52:25.910Z,1009.46
2023-04-27T12:53:25.884Z,1009.41
2023-04-27T12:54:25.864Z,1009.39
2023-04-27T12:55:33.813Z,1009.38
2023-04-27T12:56:25.851Z,1009.42
2023-04-27T12:57:25.848Z,1009.38
2023-04-27T12:58:25.849Z,1009.36
2023-04-27T12:59:25.825Z,1009.42
2023-04-27T13:00:25.842Z,1009.39
2023-04-27T13:01:25.838Z,1009.41
2023-04-27T13:02:25.881Z,1009.39
2023-04-27T13:03:25.911Z,1009.41
2023-04-27T13:04:26.063Z,1009.43
2023-04-27T13:05:25.785Z,1009.40
2023-04-27T13:06:25.748Z,1009.44
2023-04-27T13:07:25.751Z,1009.45
2023-04-27T13:08:25.756Z,1009.42
2023-04-27T13:09:25.713Z,1009.36
2023-04-27T13:10:25.739Z,1009.34
2023-04-27T13:11:25.709Z,1009.38
2023-04-27T13:12:25.694Z,1009.29
2023-04-27T13:13:25.699Z,1009.37
2023-04-27T13:14:25.692Z,1009.33
2023-04-27T13:15:25.668Z,1009.39
2023-04-27T13:16:25.952Z,1009.38
2023-04-27T13:17:25.661Z,1009.38
2023-04-27T13:18:25.649Z,1009.34
2023-04-27T13:19:25.617Z,1009.33
2023-04-27T13:20:25.618Z,1009.40
2023-04-27T13:21:25.594Z,1009.32
2023-04-27T13:22:25.588Z,1009.32
2023-04-27T13:23:25.578Z,1009.28
2023-04-27T13:24:25.565Z,1009.28
2023-04-27T13:25:25.562Z,1009.35
2023-04-27T13:26:25.566Z,1009.43
2023-04-27T13:27:25.548Z,1009.29
2023-04-27T13:28:25.536Z,1009.30
2023-04-27T13:29:25.516Z,1009.32
2023-04-27T13:30:25.552Z,1009.29
2023-04-27T13:31:25.527Z,1009.28
2023-04-27T13:32:25.545Z,1009.26
2023-04-27T13:33:25.519Z,1009.26
2023-04-27T13:34:25.495Z,1009.26
2023-04-27T13:35:25.486Z,1009.29
2023-04-27T13:36:25.491Z,1009.27
2023-04-27T13:37:25.471Z,1009.32
2023-04-27T13:38:25.449Z,1009.22
2023-04-27T13:39:25.437Z,1009.30
2023-04-27T13:40:25.469Z,1009.30
2023-04-27T13:41:25.432Z,1009.26
2023-04-27T13:42:25.411Z,1009.28
2023-04-27T13:43:25.416Z,1009.21
2023-04-27T13:44:25.431Z,1009.28
2023-04-27T13:45:25.445Z,1009.33
2023-04-27T13:46:25.552Z,1009.31
2023-04-27T13:47:25.444Z,1009.33
2023-04-27T13:48:25.392Z,1009.30
2023-04-27T13:49:25.357Z,1009.31
2023-04-27T13:50:25.393Z,1009.29
2023-04-27T13:51:25.382Z,1009.31
2023-04-27T13:52:25.436Z,1009.23
2023-04-27T13:53:25.346Z,1009.29
2023-04-27T13:54:25.344Z,1009.25
2023-04-27T13:55:25.326Z,1009.26
2023-04-27T13:56:25.363Z,1009.26
2023-04-27T13:57:25.320Z,1009.26
2023-04-27T13:58:26.274Z,1009.26
2023-04-27T13:59:25.329Z,1009.27
2023-04-27T14:00:25.302Z,1009.27
2023-04-27T14:01:25.399Z,1009.30
2023-04-27T14:02:25.503Z,1009.30
2023-04-27T14:03:25.478Z,1009.35
2023-04-27T14:04:25.405Z,1009.35
2023-04-27T14:05:25.278Z,1009.37
2023-04-27T14:06:25.297Z,1009.36
2023-04-27T14:07:25.271Z,1009.38
2023-04-27T14:08:25.250Z,1009.37
2023-04-27T14:09:25.243Z,1009.37
2023-04-27T14:10:25.240Z,1009.35
2023-04-27T14:11:25.255Z,1009.32
2023-04-27T14:12:25.227Z,1009.31
2023-04-27T14:13:25.214Z,1009.30
2023-04-27T14:14:25.255Z,1009.29
2023-04-27T14:15:25.206Z,1009.27
2023-04-27T14:16:25.265Z,1009.30
2023-04-27T14:17:25.214Z,1009.32
2023-04-27T14:18:31.959Z,1009.27
2023-04-27T14:19:25.189Z,1009.17
2023-04-27T14:20:25.189Z,1009.18
2023-04-27T14:21:25.200Z,1009.16
2023-04-27T14:22:25.174Z,1009.16
2023-04-27T14:23:25.182Z,1009.09
2023-04-27T14:24:25.169Z,1009.14
2023-04-27T14:25:25.189Z,1009.12
2023-04-27T14:26:25.191Z,1009.11
2023-04-27T14:27:25.162Z,1009.08
2023-04-27T14:28:25.163Z,1009.06
2023-04-27T14:29:25.139Z,1009.09
2023-04-27T14:30:25.132Z,1009.09
2023-04-27T14:31:25.196Z,1009.14
2023-04-27T14:32:25.198Z,1009.09
2023-04-27T14:33:25.147Z,1009.12
2023-04-27T14:34:25.110Z,1009.10
2023-04-27T14:35:25.102Z,1009.08
2023-04-27T14:36:25.137Z,1009.06
2023-04-27T14:37:25.090Z,1009.12
2023-04-27T14:38:25.087Z,1009.00
2023-04-27T14:39:25.085Z,1008.99
2023-04-27T14:40:25.108Z,1009.00
2023-04-27T14:41:25.102Z,1008.99
2023-04-27T14:42:25.077Z,1008.98
2023-04-27T14:43:25.069Z,1008.95
2023-04-27T14:44:25.085Z,1008.89
2023-04-27T14:45:27.432Z,1008.91
2023-04-27T14:46:25.180Z,1008.87
2023-04-27T14:47:25.171Z,1008.82
2023-04-27T14:48:25.065Z,1008.75
2023-04-27T14:49:25.057Z,1008.73
2023-04-27T14:50:25.036Z,1008.68
2023-04-27T14:51:25.056Z,1008.68
2023-04-27T14:52:25.061Z,1008.70
2023-04-27T14:53:25.032Z,1008.70
2023-04-27T14:54:25.011Z,1008.65
2023-04-27T14:55:25.019Z,1008.60
2023-04-27T14:56:25.024Z,1008.64
2023-04-27T14:57:25.005Z,1008.61
2023-04-27T14:58:24.988Z,1008.58
2023-04-27T14:59:24.974Z,1008.54
2023-04-27T15:00:24.972Z,1008.49
2023-04-27T15:01:25.024Z,1008.52
2023-04-27T15:02:25.036Z,1008.53
2023-04-27T15:03:25.074Z,1008.51
2023-04-27T15:04:25.044Z,1008.47
2023-04-27T15:05:24.937Z,1008.51
2023-04-27T15:06:24.934Z,1008.49
2023-04-27T15:07:24.932Z,1008.43
2023-04-27T15:08:24.923Z,1008.41
2023-04-27T15:09:24.917Z,1008.41
2023-04-27T15:10:24.907Z,1008.41
2023-04-27T15:11:24.917Z,1008.37
2023-04-27T15:12:24.906Z,1008.41
2023-04-27T15:13:24.901Z,1008.38
2023-04-27T15:14:24.907Z,1008.43
2023-04-27T15:15:24.869Z,1008.48
2023-04-27T15:16:24.929Z,1008.58
2023-04-27T15:17:24.885Z,1008.63
2023-04-27T15:18:24.854Z,1008.75
2023-04-27T15:19:24.858Z,1008.77
2023-04-27T15:20:24.839Z,1008.71
2023-04-27T15:21:24.829Z,1008.67
2023-04-27T15:22:24.844Z,1008.62
2023-04-27T15:23:24.837Z,1008.60
2023-04-27T15:24:24.835Z,1008.50
2023-04-27T15:25:24.824Z,1008.44
2023-04-27T15:26:24.807Z,1008.46
2023-04-27T15:27:24.819Z,1008.46
2023-04-27T15:28:24.795Z,1008.44
2023-04-27T15:29:24.779Z,1008.50
2023-04-27T15:30:24.798Z,1008.50
2023-04-27T15:31:24.900Z,1008.46
2023-04-27T15:32:24.786Z,1008.47
2023-04-27T15:33:24.790Z,1008.57
2023-04-27T15:34:24.771Z,1008.55
2023-04-27T15:35:24.766Z,1008.52
2023-04-27T15:36:24.741Z,1008.53
2023-04-27T15:37:24.761Z,1008.54
2023-04-27T15:38:24.750Z,1008.49
2023-04-27T15:39:24.750Z,1008.58
2023-04-27T15:40:24.745Z,1008.65
2023-04-27T15:41:24.728Z,1008.74
2023-04-27T15:42:24.718Z,1008.80
2023-04-27T15:43:24.733Z,1008.89
2023-04-27T15:44:24.724Z,1008.94
2023-04-27T15:45:24.713Z,1008.92
2023-04-27T15:46:24.702Z,1008.94
2023-04-27T15:47:24.701Z,1008.90
2023-04-27T15:48:24.689Z,1008.89
2023-04-27T15:49:24.694Z,1008.79
2023-04-27T15:50:24.680Z,1008.67
2023-04-27T15:51:24.664Z,1008.53
2023-04-27T15:52:24.679Z,1008.41
2023-04-27T15:53:24.648Z,1008.26
2023-04-27T15:54:24.655Z,1008.18
2023-04-27T15:55:24.634Z,1008.10
2023-04-27T15:56:24.646Z,1008.18
2023-04-27T15:57:24.663Z,1008.16
2023-04-27T15:58:24.635Z,1008.10
2023-04-27T15:59:24.614Z,1008.09
2023-04-27T16:00:24.601Z,1008.12
2023-04-27T16:01:24.634Z,1008.06
2023-04-27T16:02:24.733Z,1008.03
2023-04-27T16:03:24.623Z,1008.04
2023-04-27T16:04:24.745Z,1008.02
2023-04-27T16:05:24.577Z,1008.01
2023-04-27T16:06:24.561Z,1007.94
2023-04-27T16:07:24.594Z,1007.97
2023-04-27T16:08:24.547Z,1007.94
2023-04-27T16:09:24.583Z,1007.92
2023-04-27T16:10:24.529Z,1007.90
2023-04-27T16:11:24.758Z,1007.90
2023-04-27T16:12:24.547Z,1007.89
2023-04-27T16:13:24.524Z,1007.87
2023-04-27T16:14:24.504Z,1007.84
2023-04-27T16:15:24.525Z,1007.84
2023-04-27T16:16:24.555Z,1007.76
2023-04-27T16:17:24.558Z,1007.77
2023-04-27T16:18:24.472Z,1007.77
2023-04-27T16:19:24.492Z,1007.74
2023-04-27T16:21:32.140Z,1007.73
2023-04-27T16:22:32.147Z,1007.74
2023-04-27T16:23:32.121Z,1007.75
